createdAt,value
2022-09-28T00:00:01.924Z,0.00
2022-09-28T00:01:02.095Z,0.00
2022-09-28T00:02:02.852Z,0.00
2022-09-28T00:03:04.004Z,0.00
2022-09-28T00:04:03.154Z,0.00
2022-09-28T00:05:03.321Z,0.00
2022-09-28T00:06:02.089Z,0.00
2022-09-28T00:07:04.299Z,0.00
2022-09-28T00:08:03.638Z,0.00
2022-09-28T00:09:04.889Z,0.00
2022-09-28T00:10:03.255Z,0.00
2022-09-28T00:11:03.556Z,0.00
2022-09-28T00:12:05.748Z,0.00
2022-09-28T00:13:06.913Z,0.00
2022-09-28T00:14:04.424Z,0.00
2022-09-28T00:15:06.636Z,0.00
2022-09-28T00:16:06.892Z,0.00
2022-09-28T00:17:07.045Z,0.00
2022-09-28T00:18:08.265Z,0.00
2022-09-28T00:19:05.782Z,0.00
2022-09-28T00:20:07.964Z,0.00
2022-09-28T00:21:08.129Z,0.00
2022-09-28T00:22:08.318Z,0.00
2022-09-28T00:23:09.492Z,0.00
2022-09-28T00:24:07.256Z,0.00
2022-09-28T00:25:09.449Z,0.00
2022-09-28T00:26:09.636Z,0.00
2022-09-28T00:27:09.839Z,0.00
2022-09-28T00:28:10.992Z,0.00
2022-09-28T00:29:08.754Z,0.00
2022-09-28T00:30:10.938Z,0.00
2022-09-28T00:31:09.379Z,0.00
2022-09-28T00:32:09.546Z,0.00
2022-09-28T00:33:12.770Z,0.00
2022-09-28T00:34:11.992Z,0.00
2022-09-28T00:35:10.489Z,0.00
2022-09-28T00:36:10.794Z,0.00
2022-09-28T00:37:12.559Z,0.00
2022-09-28T00:38:12.448Z,0.00
2022-09-28T00:39:13.672Z,0.00
2022-09-28T00:40:11.969Z,0.00
2022-09-28T00:41:13.223Z,0.00
2022-09-28T00:42:14.458Z,0.00
2022-09-28T00:43:13.820Z,0.00
2022-09-28T00:44:15.239Z,0.00
2022-09-28T00:45:13.511Z,0.00
2022-09-28T00:46:13.868Z,0.00
2022-09-28T00:47:16.030Z,0.00
2022-09-28T00:48:15.372Z,0.00
2022-09-28T00:49:14.869Z,0.00
2022-09-28T00:50:16.917Z,0.00
2022-09-28T00:51:16.265Z,0.00
2022-09-28T00:52:16.481Z,0.00
2022-09-28T00:53:19.413Z,0.00
2022-09-28T00:54:16.291Z,0.00
2022-09-28T00:55:16.481Z,0.00
2022-09-28T00:56:17.632Z,0.00
2022-09-28T00:57:18.054Z,0.00
2022-09-28T00:58:20.293Z,0.00
2022-09-28T00:59:17.765Z,0.00
2022-09-28T01:00:19.386Z,0.00
2022-09-28T01:01:18.356Z,0.00
2022-09-28T01:02:18.595Z,0.00
2022-09-28T01:03:19.785Z,0.00
2022-09-28T01:04:19.016Z,0.00
2022-09-28T01:05:21.202Z,0.00
2022-09-28T01:06:21.386Z,0.00
2022-09-28T01:07:19.890Z,0.00
2022-09-28T01:08:21.093Z,0.00
2022-09-28T01:09:20.454Z,0.00
2022-09-28T01:10:22.640Z,0.00
2022-09-28T01:11:21.043Z,0.00
2022-09-28T01:12:23.304Z,0.00
2022-09-28T01:13:22.659Z,0.00
2022-09-28T01:14:21.912Z,0.00
2022-09-28T01:15:24.081Z,0.00
2022-09-28T01:16:22.500Z,0.00
2022-09-28T01:17:22.818Z,0.00
2022-09-28T01:18:25.876Z,0.00
2022-09-28T01:19:23.270Z,0.00
2022-09-28T01:20:25.476Z,0.00
2022-09-28T01:21:24.864Z,0.00
2022-09-28T01:22:26.059Z,0.00
2022-09-28T01:23:25.948Z,0.00
2022-09-28T01:24:26.694Z,0.00
2022-09-28T01:25:26.882Z,0.00
2022-09-28T01:26:27.073Z,0.00
2022-09-28T01:27:27.261Z,0.00
2022-09-28T01:28:28.434Z,0.00
2022-09-28T01:29:26.185Z,0.00
2022-09-28T01:30:28.353Z,0.00
2022-09-28T01:31:26.765Z,0.00
2022-09-28T01:32:28.925Z,0.00
2022-09-28T01:33:28.159Z,0.00
2022-09-28T01:34:27.662Z,0.00
2022-09-28T01:35:29.931Z,0.00
2022-09-28T01:36:28.211Z,0.00
2022-09-28T01:37:30.395Z,0.00
2022-09-28T01:38:31.557Z,0.00
2022-09-28T01:39:30.792Z,0.00
2022-09-28T01:40:29.485Z,0.00
2022-09-28T01:41:31.586Z,0.00
2022-09-28T01:42:29.959Z,0.00
2022-09-28T01:43:33.118Z,0.00
2022-09-28T01:44:32.350Z,0.00
2022-09-28T01:45:32.546Z,0.00
2022-09-28T01:46:31.180Z,0.00
2022-09-28T01:47:33.333Z,0.00
2022-09-28T01:48:34.517Z,0.00
2022-09-28T01:49:33.734Z,0.00
2022-09-28T01:50:33.924Z,0.00
2022-09-28T01:51:34.626Z,0.00
2022-09-28T01:52:34.796Z,0.00
2022-09-28T01:53:34.310Z,0.00
2022-09-28T01:54:37.028Z,0.00
2022-09-28T01:55:35.738Z,0.00
2022-09-28T01:56:35.926Z,0.00
2022-09-28T01:57:36.087Z,0.00
2022-09-28T01:58:36.251Z,0.00
2022-09-28T01:59:38.402Z,0.00
2022-09-28T02:00:37.205Z,0.00
2022-09-28T02:01:37.330Z,0.00
2022-09-28T02:02:37.515Z,0.00
2022-09-28T02:03:37.702Z,0.00
2022-09-28T02:04:39.073Z,0.00
2022-09-28T02:05:38.304Z,0.00
2022-09-28T02:06:38.979Z,0.00
2022-09-28T02:07:39.136Z,0.00
2022-09-28T02:08:39.326Z,0.00
2022-09-28T02:09:39.486Z,0.00
2022-09-28T02:10:40.177Z,0.00
2022-09-28T02:11:40.383Z,0.00
2022-09-28T02:12:40.551Z,0.00
2022-09-28T02:13:40.756Z,0.00
2022-09-28T02:14:41.402Z,0.00
2022-09-28T02:15:41.676Z,0.00
2022-09-28T02:16:40.092Z,0.00
2022-09-28T02:17:40.270Z,0.00
2022-09-28T02:18:40.577Z,0.00
2022-09-28T02:19:42.742Z,0.00
2022-09-28T02:20:42.927Z,0.00
2022-09-28T02:21:42.462Z,0.00
2022-09-28T02:22:43.705Z,0.00
2022-09-28T02:23:41.995Z,0.00
2022-09-28T02:24:45.638Z,0.00
2022-09-28T02:25:45.817Z,0.00
2022-09-28T02:26:42.849Z,0.00
2022-09-28T02:27:43.154Z,0.00
2022-09-28T02:28:45.358Z,0.00
2022-09-28T02:29:45.540Z,0.00
2022-09-28T02:30:44.060Z,0.00
2022-09-28T02:31:46.308Z,0.00
2022-09-28T02:32:44.659Z,0.00
2022-09-28T02:33:47.010Z,0.00
2022-09-28T02:34:47.032Z,0.00
2022-09-28T02:35:45.546Z,0.00
2022-09-28T02:36:47.731Z,0.00
2022-09-28T02:37:46.110Z,0.00
2022-09-28T02:38:46.431Z,0.00
2022-09-28T02:39:46.752Z,0.00
2022-09-28T02:40:47.068Z,0.00
2022-09-28T02:41:49.222Z,0.00
2022-09-28T02:42:47.601Z,0.00
2022-09-28T02:43:47.902Z,0.00
2022-09-28T02:44:51.570Z,0.00
2022-09-28T02:45:50.401Z,0.00
2022-09-28T02:46:49.568Z,0.00
2022-09-28T02:47:49.051Z,0.00
2022-09-28T02:49:04.831Z,0.00
2022-09-28T02:49:52.528Z,0.00
2022-09-28T02:50:49.922Z,0.00
2022-09-28T02:51:52.102Z,0.00
2022-09-28T02:52:50.504Z,0.00
2022-09-28T02:53:51.730Z,0.00
2022-09-28T02:54:51.125Z,0.00
2022-09-28T02:55:51.515Z,0.00
2022-09-28T02:56:55.097Z,0.00
2022-09-28T02:57:51.994Z,0.00
2022-09-28T02:58:53.274Z,0.00
2022-09-28T02:59:54.505Z,0.00
2022-09-28T03:00:54.754Z,0.00
2022-09-28T03:01:53.238Z,0.00
2022-09-28T03:02:55.416Z,0.00
2022-09-28T03:03:54.803Z,0.00
2022-09-28T03:04:56.008Z,0.00
2022-09-28T03:05:56.180Z,0.00
2022-09-28T03:06:54.697Z,0.00
2022-09-28T03:07:58.331Z,0.00
2022-09-28T03:08:57.150Z,0.00
2022-09-28T03:09:57.245Z,0.00
2022-09-28T03:10:57.414Z,0.00
2022-09-28T03:11:56.033Z,0.00
2022-09-28T03:12:56.344Z,0.00
2022-09-28T03:13:59.998Z,0.00
2022-09-28T03:14:56.906Z,0.00
2022-09-28T03:15:57.260Z,0.00
2022-09-28T03:16:57.513Z,0.00
2022-09-28T03:17:57.826Z,0.00
2022-09-28T03:19:01.023Z,0.00
2022-09-28T03:19:58.397Z,0.00
2022-09-28T03:20:58.701Z,0.00
2022-09-28T03:21:59.011Z,0.00
2022-09-28T03:23:23.843Z,0.00
2022-09-28T03:24:02.676Z,0.00
2022-09-28T03:25:01.745Z,0.00
2022-09-28T03:26:01.937Z,0.00
2022-09-28T03:27:03.167Z,0.00
2022-09-28T03:28:02.356Z,0.00
2022-09-28T03:29:04.581Z,0.00
2022-09-28T03:30:03.313Z,0.00
2022-09-28T03:31:01.716Z,0.00
2022-09-28T03:32:03.973Z,0.00
2022-09-28T03:33:04.128Z,0.00
2022-09-28T03:34:05.293Z,0.00
2022-09-28T03:35:04.527Z,0.00
2022-09-28T03:36:05.219Z,0.00
2022-09-28T03:37:05.410Z,0.00
2022-09-28T03:38:05.608Z,0.00
2022-09-28T03:39:06.763Z,0.00
2022-09-28T03:40:06.494Z,0.00
2022-09-28T03:41:04.879Z,0.00
2022-09-28T03:42:05.188Z,0.00
2022-09-28T03:43:05.490Z,0.00
2022-09-28T03:44:06.809Z,0.00
2022-09-28T03:45:08.008Z,0.00
2022-09-28T03:46:06.352Z,0.00
2022-09-28T03:47:06.555Z,0.00
2022-09-28T03:48:08.713Z,0.00
2022-09-28T03:49:07.937Z,0.00
2022-09-28T03:50:09.371Z,0.00
2022-09-28T03:51:08.691Z,0.00
2022-09-28T03:52:08.037Z,0.00
2022-09-28T03:53:10.235Z,0.00
2022-09-28T03:54:11.889Z,0.00
2022-09-28T03:55:10.639Z,0.00
2022-09-28T03:56:10.816Z,0.00
2022-09-28T03:57:11.010Z,0.00
2022-09-28T03:58:11.674Z,0.00
2022-09-28T03:59:13.022Z,0.00
2022-09-28T04:00:12.176Z,0.00
2022-09-28T04:01:16.611Z,0.00
2022-09-28T04:02:12.002Z,0.00
2022-09-28T04:03:13.065Z,0.00
2022-09-28T04:04:12.386Z,0.00
2022-09-28T04:05:14.513Z,0.00
2022-09-28T04:06:12.171Z,0.00
2022-09-28T04:07:14.337Z,0.00
2022-09-28T04:08:14.486Z,0.00
2022-09-28T04:09:14.770Z,0.00
2022-09-28T04:10:14.881Z,0.00
2022-09-28T04:11:13.645Z,0.00
2022-09-28T04:12:15.805Z,0.00
2022-09-28T04:13:14.189Z,0.00
2022-09-28T04:14:15.531Z,0.00
2022-09-28T04:15:16.750Z,0.00
2022-09-28T04:16:15.058Z,0.00
2022-09-28T04:17:18.661Z,0.00
2022-09-28T04:18:15.581Z,0.00
2022-09-28T04:19:18.804Z,0.00
2022-09-28T04:20:17.972Z,0.00
2022-09-28T04:21:16.474Z,0.00
2022-09-28T04:22:16.790Z,0.00
2022-09-28T04:23:17.181Z,0.00
2022-09-28T04:24:18.402Z,0.00
2022-09-28T04:25:17.662Z,0.00
2022-09-28T04:26:19.872Z,0.00
2022-09-28T04:27:18.282Z,0.00
2022-09-28T04:28:18.596Z,0.00
2022-09-28T04:29:21.831Z,0.00
2022-09-28T04:30:21.004Z,0.00
2022-09-28T04:31:20.445Z,0.00
2022-09-28T04:32:19.692Z,0.00
2022-09-28T04:33:20.023Z,0.00
2022-09-28T04:34:21.874Z,0.00
2022-09-28T04:35:22.613Z,0.00
2022-09-28T04:36:20.889Z,0.00
2022-09-28T04:37:22.018Z,0.00
2022-09-28T04:38:35.852Z,0.00
2022-09-28T04:39:26.181Z,0.00
2022-09-28T04:40:23.978Z,0.00
2022-09-28T04:41:24.194Z,0.00
2022-09-28T04:42:22.702Z,0.00
2022-09-28T04:43:23.334Z,0.00
2022-09-28T04:44:24.332Z,0.00
2022-09-28T04:45:23.586Z,0.00
2022-09-28T04:46:25.766Z,0.00
2022-09-28T04:47:24.167Z,0.00
2022-09-28T04:48:24.480Z,0.00
2022-09-28T04:49:27.657Z,0.00
2022-09-28T04:50:25.086Z,0.00
2022-09-28T04:51:27.279Z,0.00
2022-09-28T04:52:25.655Z,0.00
2022-09-28T04:53:25.971Z,0.00
2022-09-28T04:54:29.135Z,0.00
2022-09-28T04:55:26.562Z,0.00
2022-09-28T04:56:26.882Z,0.00
2022-09-28T04:57:27.236Z,0.00
2022-09-28T04:58:27.555Z,0.00
2022-09-28T04:59:30.715Z,0.00
2022-09-28T05:00:29.942Z,0.00
2022-09-28T05:01:29.514Z,0.00
2022-09-28T05:02:30.701Z,0.00
2022-09-28T05:03:30.939Z,0.00
2022-09-28T05:04:32.028Z,0.00
2022-09-28T05:05:31.279Z,0.00
2022-09-28T05:06:31.463Z,0.00
2022-09-28T05:07:31.645Z,0.00
2022-09-28T05:08:30.416Z,0.00
2022-09-28T05:09:33.100Z,0.00
2022-09-28T05:10:32.003Z,5.62
2022-09-28T05:11:33.185Z,5.62
2022-09-28T05:12:33.366Z,5.62
2022-09-28T05:13:31.922Z,5.62
2022-09-28T05:14:35.589Z,5.62
2022-09-28T05:15:35.777Z,5.62
2022-09-28T05:16:34.533Z,5.62
2022-09-28T05:17:35.584Z,11.25
2022-09-28T05:18:34.944Z,11.25
2022-09-28T05:19:35.124Z,11.25
2022-09-28T05:20:35.808Z,11.25
2022-09-28T05:21:35.209Z,16.88
2022-09-28T05:22:37.918Z,16.88
2022-09-28T05:23:36.643Z,16.88
2022-09-28T05:24:36.814Z,22.50
2022-09-28T05:25:37.017Z,22.50
2022-09-28T05:26:35.687Z,22.50
2022-09-28T05:27:38.817Z,28.12
2022-09-28T05:28:36.258Z,28.12
2022-09-28T05:29:38.443Z,33.75
2022-09-28T05:30:38.723Z,33.75
2022-09-28T05:31:40.368Z,39.38
2022-09-28T05:32:38.272Z,39.38
2022-09-28T05:33:39.479Z,45.00
2022-09-28T05:34:39.666Z,45.00
2022-09-28T05:35:39.947Z,50.62
2022-09-28T05:36:40.069Z,50.62
2022-09-28T05:37:41.231Z,56.25
2022-09-28T05:38:40.447Z,56.25
2022-09-28T05:39:41.134Z,61.88
2022-09-28T05:40:41.369Z,61.88
2022-09-28T05:41:41.454Z,67.50
2022-09-28T05:42:40.871Z,67.50
2022-09-28T05:43:40.305Z,73.12
2022-09-28T05:44:42.485Z,78.75
2022-09-28T05:45:42.686Z,78.75
2022-09-28T05:46:42.850Z,84.38
2022-09-28T05:47:42.272Z,84.38
2022-09-28T05:48:43.652Z,90.00
2022-09-28T05:49:43.669Z,90.00
2022-09-28T05:50:43.839Z,95.62
2022-09-28T05:51:45.519Z,95.62
2022-09-28T05:52:43.621Z,101.25
2022-09-28T05:53:44.829Z,101.25
2022-09-28T05:54:45.022Z,106.88
2022-09-28T05:55:45.220Z,106.88
2022-09-28T05:56:45.397Z,106.88
2022-09-28T05:57:44.931Z,112.50
2022-09-28T05:58:44.227Z,118.12
2022-09-28T05:59:46.388Z,129.38
2022-09-28T06:00:44.723Z,135.00
2022-09-28T06:01:46.900Z,129.38
2022-09-28T06:02:48.133Z,135.00
2022-09-28T06:03:45.451Z,135.00
2022-09-28T06:04:47.633Z,129.38
2022-09-28T06:05:47.822Z,129.38
2022-09-28T06:06:48.012Z,129.38
2022-09-28T06:07:49.181Z,135.00
2022-09-28T06:08:48.469Z,135.00
2022-09-28T06:09:47.132Z,135.00
2022-09-28T06:10:49.472Z,135.00
2022-09-28T06:11:48.633Z,129.38
2022-09-28T06:12:51.302Z,135.00
2022-09-28T06:13:48.251Z,135.00
2022-09-28T06:14:51.892Z,146.25
2022-09-28T06:15:48.732Z,146.25
2022-09-28T06:16:51.026Z,151.88
2022-09-28T06:17:50.050Z,157.50
2022-09-28T06:18:51.448Z,163.12
2022-09-28T06:19:49.773Z,157.50
2022-09-28T06:20:51.069Z,168.75
2022-09-28T06:21:50.267Z,168.75
2022-09-28T06:22:53.891Z,174.38
2022-09-28T06:23:52.619Z,180.00
2022-09-28T06:24:51.078Z,185.62
2022-09-28T06:25:51.332Z,202.50
2022-09-28T06:26:51.577Z,196.88
2022-09-28T06:27:54.822Z,208.12
2022-09-28T06:28:53.979Z,202.50
2022-09-28T06:29:52.302Z,196.88
2022-09-28T06:30:52.726Z,196.88
2022-09-28T06:31:53.743Z,191.25
2022-09-28T06:32:54.034Z,185.62
2022-09-28T06:33:55.263Z,196.88
2022-09-28T06:34:56.339Z,196.88
2022-09-28T06:35:53.869Z,196.88
2022-09-28T06:36:54.160Z,202.50
2022-09-28T06:37:57.293Z,202.50
2022-09-28T06:38:54.646Z,208.12
2022-09-28T06:39:56.811Z,213.75
2022-09-28T06:40:55.172Z,208.12
2022-09-28T06:41:55.465Z,213.75
2022-09-28T06:42:59.107Z,219.38
2022-09-28T06:43:57.837Z,230.62
2022-09-28T06:44:56.262Z,230.62
2022-09-28T06:45:57.381Z,236.25
2022-09-28T06:46:57.716Z,236.25
2022-09-28T06:48:00.425Z,236.25
2022-09-28T06:48:59.156Z,241.88
2022-09-28T06:49:57.480Z,247.50
2022-09-28T06:50:57.823Z,258.75
2022-09-28T06:52:00.005Z,286.88
2022-09-28T06:52:59.457Z,270.00
2022-09-28T06:54:00.678Z,264.38
2022-09-28T06:54:58.987Z,264.38
2022-09-28T06:55:59.225Z,275.62
2022-09-28T06:57:01.439Z,286.88
2022-09-28T06:58:00.725Z,292.50
2022-09-28T06:59:00.034Z,270.00
2022-09-28T07:00:01.120Z,286.88
2022-09-28T07:01:02.561Z,298.12
2022-09-28T07:02:02.711Z,303.75
2022-09-28T07:03:02.109Z,292.50
2022-09-28T07:04:01.393Z,292.50
2022-09-28T07:05:01.654Z,286.88
2022-09-28T07:06:03.823Z,275.62
2022-09-28T07:07:02.137Z,264.38
2022-09-28T07:08:05.779Z,281.25
2022-09-28T07:09:20.043Z,286.88
2022-09-28T07:10:03.878Z,298.12
2022-09-28T07:11:03.199Z,292.50
2022-09-28T07:12:03.430Z,315.00
2022-09-28T07:13:04.964Z,331.88
2022-09-28T07:14:05.896Z,337.50
2022-09-28T07:15:06.089Z,326.25
2022-09-28T07:16:04.690Z,326.25
2022-09-28T07:17:13.610Z,331.88
2022-09-28T07:18:08.155Z,326.25
2022-09-28T07:19:05.461Z,337.50
2022-09-28T07:20:17.125Z,343.12
2022-09-28T07:21:07.409Z,348.75
2022-09-28T07:22:06.240Z,348.75
2022-09-28T07:23:18.349Z,343.12
2022-09-28T07:24:07.759Z,371.25
2022-09-28T07:25:08.959Z,388.12
2022-09-28T07:26:09.065Z,399.38
2022-09-28T07:27:09.487Z,371.25
2022-09-28T07:28:09.672Z,388.12
2022-09-28T07:29:09.872Z,405.00
2022-09-28T07:30:10.522Z,393.75
2022-09-28T07:31:12.220Z,416.25
2022-09-28T07:32:10.919Z,410.62
2022-09-28T07:33:12.100Z,427.50
2022-09-28T07:34:11.387Z,405.00
2022-09-28T07:35:10.099Z,399.38
2022-09-28T07:36:10.346Z,393.75
2022-09-28T07:37:10.591Z,382.50
2022-09-28T07:38:12.788Z,360.00
2022-09-28T07:39:12.979Z,365.62
2022-09-28T07:40:13.146Z,360.00
2022-09-28T07:41:14.305Z,365.62
2022-09-28T07:42:13.952Z,410.62
2022-09-28T07:43:14.146Z,410.62
2022-09-28T07:44:14.429Z,376.88
2022-09-28T07:45:14.544Z,382.50
2022-09-28T07:46:15.080Z,405.00
2022-09-28T07:47:14.922Z,405.00
2022-09-28T07:48:15.647Z,427.50
2022-09-28T07:49:15.841Z,433.12
2022-09-28T07:50:16.063Z,433.12
2022-09-28T07:51:16.180Z,433.12
2022-09-28T07:52:16.384Z,421.88
2022-09-28T07:53:16.105Z,393.75
2022-09-28T07:54:16.895Z,399.38
2022-09-28T07:55:15.723Z,365.62
2022-09-28T07:56:15.955Z,354.38
2022-09-28T07:57:16.197Z,348.75
2022-09-28T07:58:18.376Z,365.62
2022-09-28T07:59:20.018Z,405.00
2022-09-28T08:00:16.982Z,405.00
2022-09-28T08:01:17.273Z,427.50
2022-09-28T08:02:18.527Z,444.38
2022-09-28T08:03:19.688Z,433.12
2022-09-28T08:04:18.103Z,427.50
2022-09-28T08:05:20.291Z,466.88
2022-09-28T08:06:18.595Z,500.62
2022-09-28T08:07:23.722Z,461.25
2022-09-28T08:08:21.035Z,495.00
2022-09-28T08:09:21.218Z,416.25
2022-09-28T08:10:21.401Z,450.00
2022-09-28T08:11:22.083Z,466.88
2022-09-28T08:12:22.369Z,466.88
2022-09-28T08:13:26.712Z,472.50
2022-09-28T08:14:23.646Z,399.38
2022-09-28T08:15:23.336Z,388.12
2022-09-28T08:16:23.618Z,427.50
2022-09-28T08:17:23.942Z,416.25
2022-09-28T08:18:24.125Z,427.50
2022-09-28T08:19:24.127Z,444.38
2022-09-28T08:20:22.877Z,455.62
2022-09-28T08:21:26.497Z,433.12
2022-09-28T08:22:24.298Z,388.12
2022-09-28T08:23:25.547Z,388.12
2022-09-28T08:24:25.727Z,427.50
2022-09-28T08:25:25.406Z,444.38
2022-09-28T08:26:24.466Z,455.62
2022-09-28T08:27:28.177Z,472.50
2022-09-28T08:28:25.006Z,444.38
2022-09-28T08:29:27.197Z,410.62
2022-09-28T08:30:25.560Z,405.00
2022-09-28T08:31:27.677Z,399.38
2022-09-28T08:32:26.136Z,421.88
2022-09-28T08:33:26.374Z,461.25
2022-09-28T08:34:28.556Z,478.12
2022-09-28T08:35:26.868Z,444.38
2022-09-28T08:36:29.056Z,410.62
2022-09-28T08:37:27.404Z,438.75
2022-09-28T08:38:27.663Z,540.00
2022-09-28T08:39:27.927Z,495.00
2022-09-28T08:40:30.146Z,455.62
2022-09-28T08:41:30.267Z,455.62
2022-09-28T08:42:29.737Z,461.25
2022-09-28T08:43:29.027Z,427.50
2022-09-28T08:44:29.274Z,444.38
2022-09-28T08:45:29.507Z,483.75
2022-09-28T08:46:29.798Z,478.12
2022-09-28T08:47:33.301Z,438.75
2022-09-28T08:48:30.240Z,444.38
2022-09-28T08:49:30.478Z,444.38
2022-09-28T08:50:30.716Z,478.12
2022-09-28T08:51:33.197Z,461.25
2022-09-28T08:52:32.096Z,461.25
2022-09-28T08:53:31.523Z,483.75
2022-09-28T08:54:31.751Z,573.75
2022-09-28T08:55:31.995Z,607.50
2022-09-28T08:56:32.228Z,551.25
2022-09-28T08:57:35.395Z,579.38
2022-09-28T08:58:34.626Z,551.25
2022-09-28T08:59:33.067Z,573.75
2022-09-28T09:00:33.302Z,748.12
2022-09-28T09:01:33.581Z,652.50
2022-09-28T09:02:35.881Z,607.50
2022-09-28T09:03:35.986Z,613.12
2022-09-28T09:04:34.298Z,680.62
2022-09-28T09:05:35.464Z,697.50
2022-09-28T09:06:35.837Z,714.38
2022-09-28T09:07:38.543Z,658.12
2022-09-28T09:08:35.375Z,658.12
2022-09-28T09:09:35.609Z,669.38
2022-09-28T09:10:35.843Z,720.00
2022-09-28T09:11:37.089Z,669.38
2022-09-28T09:12:38.469Z,703.12
2022-09-28T09:13:36.652Z,725.62
2022-09-28T09:14:38.841Z,691.88
2022-09-28T09:15:37.157Z,703.12
2022-09-28T09:16:37.420Z,714.38
2022-09-28T09:17:39.484Z,697.50
2022-09-28T09:18:37.904Z,680.62
2022-09-28T09:19:40.093Z,697.50
2022-09-28T09:20:38.396Z,708.75
2022-09-28T09:21:39.599Z,753.75
2022-09-28T09:22:40.937Z,832.50
2022-09-28T09:23:39.289Z,855.00
2022-09-28T09:24:39.527Z,866.25
2022-09-28T09:25:39.767Z,871.88
2022-09-28T09:26:40.001Z,933.75
2022-09-28T09:27:43.686Z,1012.50
2022-09-28T09:28:42.441Z,1113.75
2022-09-28T09:29:40.743Z,1096.88
2022-09-28T09:30:41.028Z,984.38
2022-09-28T09:31:42.226Z,1130.62
2022-09-28T09:32:44.878Z,1794.38
2022-09-28T09:33:43.626Z,1310.62
2022-09-28T09:34:42.063Z,1833.75
2022-09-28T09:35:42.326Z,1766.25
2022-09-28T09:36:42.554Z,1316.25
2022-09-28T09:37:43.831Z,1985.62
2022-09-28T09:38:45.055Z,1676.25
2022-09-28T09:39:45.246Z,1867.50
2022-09-28T09:40:43.701Z,900.00
2022-09-28T09:41:43.904Z,787.50
2022-09-28T09:42:45.109Z,815.62
2022-09-28T09:43:46.335Z,978.75
2022-09-28T09:44:44.646Z,1158.75
2022-09-28T09:45:44.904Z,1563.75
2022-09-28T09:46:45.126Z,1963.12
2022-09-28T09:47:48.810Z,1080.00
2022-09-28T09:48:47.547Z,1215.00
2022-09-28T09:49:45.887Z,1805.62
2022-09-28T09:50:46.181Z,1946.25
2022-09-28T09:51:46.439Z,1963.12
2022-09-28T09:52:50.091Z,1693.12
2022-09-28T09:53:48.829Z,1513.12
2022-09-28T09:54:48.982Z,1771.88
2022-09-28T09:55:49.153Z,1653.75
2022-09-28T09:56:49.315Z,1687.50
2022-09-28T09:57:51.472Z,961.88
2022-09-28T09:58:50.207Z,1845.00
2022-09-28T09:59:50.366Z,1951.88
2022-09-28T10:00:50.559Z,1890.00
2022-09-28T10:01:50.743Z,1935.00
2022-09-28T10:02:52.294Z,1558.12
2022-09-28T10:03:51.642Z,1552.50
2022-09-28T10:04:51.829Z,1524.38
2022-09-28T10:05:50.271Z,1783.12
2022-09-28T10:06:50.512Z,1698.75
2022-09-28T10:07:51.776Z,1738.12
2022-09-28T10:08:53.003Z,1755.00
2022-09-28T10:09:53.174Z,1760.62
2022-09-28T10:10:51.602Z,1749.38
2022-09-28T10:11:52.842Z,1929.38
2022-09-28T10:12:54.100Z,1940.62
2022-09-28T10:13:54.241Z,1361.25
2022-09-28T10:14:53.822Z,1935.00
2022-09-28T10:15:52.903Z,1991.25
2022-09-28T10:16:53.175Z,1243.12
2022-09-28T10:17:55.387Z,1175.62
2022-09-28T10:18:55.535Z,1080.00
2022-09-28T10:19:55.718Z,1400.62
2022-09-28T10:20:55.905Z,1057.50
2022-09-28T10:21:55.574Z,990.00
2022-09-28T10:22:58.258Z,1237.50
2022-09-28T10:23:56.986Z,1895.62
2022-09-28T10:24:57.186Z,1828.12
2022-09-28T10:25:57.367Z,1935.00
2022-09-28T10:26:58.067Z,2025.00
2022-09-28T10:27:58.289Z,2053.12
2022-09-28T10:28:58.451Z,1968.75
2022-09-28T10:29:59.134Z,1856.25
2022-09-28T10:30:59.387Z,1861.88
2022-09-28T10:31:59.516Z,1929.38
2022-09-28T10:32:59.745Z,1991.25
2022-09-28T10:33:59.928Z,2058.75
2022-09-28T10:35:00.620Z,2165.62
2022-09-28T10:35:58.966Z,2221.88
2022-09-28T10:37:01.202Z,2221.88
2022-09-28T10:38:02.281Z,2131.88
2022-09-28T10:39:01.511Z,2227.50
2022-09-28T10:40:02.200Z,2238.75
2022-09-28T10:41:00.548Z,2266.88
2022-09-28T10:42:02.690Z,2272.50
2022-09-28T10:43:02.156Z,2469.38
2022-09-28T10:44:04.845Z,2581.88
2022-09-28T10:45:01.801Z,2475.00
2022-09-28T10:46:05.550Z,2491.88
2022-09-28T10:47:02.364Z,2396.25
2022-09-28T10:48:03.574Z,2435.62
2022-09-28T10:49:02.873Z,2446.88
2022-09-28T10:50:05.051Z,2503.12
2022-09-28T10:51:05.255Z,2548.12
2022-09-28T10:52:03.689Z,2610.00
2022-09-28T10:53:05.882Z,2587.50
2022-09-28T10:54:04.196Z,2565.00
2022-09-28T10:55:06.384Z,2542.50
2022-09-28T10:56:04.694Z,2604.38
2022-09-28T10:57:10.320Z,2694.38
2022-09-28T10:58:08.056Z,2700.00
2022-09-28T10:59:05.496Z,2632.50
2022-09-28T11:00:07.676Z,2379.38
2022-09-28T11:01:06.019Z,2458.12
2022-09-28T11:02:08.220Z,2593.12
2022-09-28T11:03:08.349Z,2559.38
2022-09-28T11:04:06.778Z,2587.50
2022-09-28T11:05:07.029Z,2655.00
2022-09-28T11:06:09.202Z,2598.75
2022-09-28T11:07:07.507Z,2536.88
2022-09-28T11:08:09.701Z,2576.25
2022-09-28T11:09:10.861Z,2362.50
2022-09-28T11:10:08.273Z,2401.88
2022-09-28T11:11:11.923Z,2418.75
2022-09-28T11:12:08.754Z,2520.00
2022-09-28T11:13:11.861Z,765.00
2022-09-28T11:14:09.294Z,843.75
2022-09-28T11:15:10.442Z,2446.88
2022-09-28T11:16:11.804Z,2806.88
2022-09-28T11:17:11.969Z,2902.50
2022-09-28T11:18:10.409Z,2902.50
2022-09-28T11:19:12.599Z,2694.38
2022-09-28T11:20:10.921Z,2570.62
2022-09-28T11:21:13.135Z,2761.88
2022-09-28T11:22:13.681Z,2553.75
2022-09-28T11:23:13.622Z,2452.50
2022-09-28T11:24:18.170Z,2283.75
2022-09-28T11:25:13.253Z,2812.50
2022-09-28T11:26:16.192Z,3003.75
2022-09-28T11:27:13.857Z,2953.12
2022-09-28T11:28:14.986Z,2986.88
2022-09-28T11:29:14.260Z,3076.88
2022-09-28T11:30:13.541Z,3015.00
2022-09-28T11:31:13.814Z,1929.38
2022-09-28T11:32:16.021Z,1333.12
2022-09-28T11:33:14.345Z,1203.75
2022-09-28T11:34:14.635Z,1125.00
2022-09-28T11:35:14.837Z,1074.38
2022-09-28T11:36:15.087Z,1051.88
2022-09-28T11:37:15.315Z,1006.88
2022-09-28T11:38:16.498Z,967.50
2022-09-28T11:39:15.826Z,911.25
2022-09-28T11:40:16.209Z,866.25
2022-09-28T11:41:16.319Z,894.38
2022-09-28T11:42:18.508Z,1783.12
2022-09-28T11:43:18.689Z,1271.25
2022-09-28T11:44:17.226Z,877.50
2022-09-28T11:45:17.479Z,860.62
2022-09-28T11:46:17.734Z,843.75
2022-09-28T11:47:17.976Z,894.38
2022-09-28T11:48:20.148Z,939.38
2022-09-28T11:49:18.467Z,933.75
2022-09-28T11:50:24.153Z,1147.50
2022-09-28T11:51:18.978Z,776.25
2022-09-28T11:52:19.319Z,680.62
2022-09-28T11:53:19.551Z,596.25
2022-09-28T11:54:21.731Z,540.00
2022-09-28T11:55:21.916Z,506.25
2022-09-28T11:56:22.065Z,483.75
2022-09-28T11:57:22.249Z,466.88
2022-09-28T11:58:22.946Z,472.50
2022-09-28T11:59:21.279Z,483.75
2022-09-28T12:00:23.469Z,495.00
2022-09-28T12:01:21.775Z,506.25
2022-09-28T12:02:22.148Z,523.12
2022-09-28T12:03:24.272Z,483.75
2022-09-28T12:04:22.473Z,483.75
2022-09-28T12:05:24.656Z,489.38
2022-09-28T12:06:23.076Z,500.62
2022-09-28T12:07:23.370Z,500.62
2022-09-28T12:08:23.571Z,500.62
2022-09-28T12:09:25.777Z,489.38
2022-09-28T12:10:25.945Z,495.00
2022-09-28T12:11:26.105Z,523.12
2022-09-28T12:12:26.384Z,573.75
2022-09-28T12:13:26.487Z,511.88
2022-09-28T12:14:27.184Z,528.75
2022-09-28T12:15:27.363Z,528.75
2022-09-28T12:16:53.539Z,511.88
2022-09-28T12:17:27.095Z,495.00
2022-09-28T12:18:28.157Z,478.12
2022-09-28T12:19:28.344Z,472.50
2022-09-28T12:20:28.530Z,472.50
2022-09-28T12:21:29.215Z,466.88
2022-09-28T12:22:27.570Z,483.75
2022-09-28T12:23:29.748Z,691.88
2022-09-28T12:24:28.045Z,573.75
2022-09-28T12:25:30.247Z,759.38
2022-09-28T12:26:32.540Z,1321.88
2022-09-28T12:27:30.913Z,416.25
2022-09-28T12:28:31.086Z,399.38
2022-09-28T12:29:31.285Z,382.50
2022-09-28T12:30:29.824Z,376.88
2022-09-28T12:31:32.008Z,382.50
2022-09-28T12:32:32.196Z,399.38
2022-09-28T12:33:32.396Z,506.25
2022-09-28T12:34:32.566Z,438.75
2022-09-28T12:35:32.932Z,568.12
2022-09-28T12:36:33.093Z,444.38
2022-09-28T12:37:32.794Z,765.00
2022-09-28T12:38:32.974Z,759.38
2022-09-28T12:39:53.419Z,1760.62
2022-09-28T12:40:33.765Z,1828.12
2022-09-28T12:41:34.921Z,2250.00
2022-09-28T12:42:35.105Z,2323.12
2022-09-28T12:43:35.289Z,905.62
2022-09-28T12:44:35.465Z,900.00
2022-09-28T12:45:42.873Z,883.12
2022-09-28T12:46:38.456Z,860.62
2022-09-28T12:47:34.803Z,810.00
2022-09-28T12:48:35.037Z,787.50